Terminal Aerodrome Forecast
Issued by NWS Northern Indiana

Home | Current Version | Previous Version | Text Only | Print | Product List | Glossary On
Versions: 1 2 3 4 5 6 7 8 9 10 11 12 13 14
000
FTUS43 KIWX 251731
TAFFWA
TAF
KFWA 251731Z 2518/2618 22012KT P6SM VCTS SCT030CB
     FM252000 24009KT P6SM BKN040
     FM252200 27009KT P6SM BKN080
     FM260400 VRB03KT P6SM BKN250=

USA.gov is the U.S. government's official web portal to all federal, state and local government web resources and services.